createdAt,value
2023-03-16T00:00:09.711Z,71.00
2023-03-16T00:02:36.215Z,70.40
2023-03-16T00:05:02.641Z,70.10
2023-03-16T00:07:29.372Z,70.53
2023-03-16T00:09:55.939Z,70.55
2023-03-16T00:12:22.733Z,70.07
2023-03-16T00:14:49.698Z,69.92
2023-03-16T00:17:21.151Z,69.88
2023-03-16T00:19:54.960Z,68.94
2023-03-16T00:22:26.338Z,69.18
2023-03-16T00:24:53.335Z,69.50
2023-03-16T00:27:22.768Z,68.99
2023-03-16T00:29:55.709Z,69.25
2023-03-16T00:32:34.365Z,68.46
2023-03-16T00:35:02.182Z,68.77
2023-03-16T00:37:29.278Z,69.40
2023-03-16T00:39:58.655Z,69.08
2023-03-16T00:42:27.756Z,70.03
2023-03-16T00:44:57.531Z,68.89
2023-03-16T00:47:25.840Z,69.23
2023-03-16T00:49:52.542Z,69.06
2023-03-16T00:52:19.045Z,70.23
2023-03-16T00:54:47.142Z,70.41
2023-03-16T00:57:16.497Z,69.61
2023-03-16T00:59:42.962Z,69.16
2023-03-16T01:02:10.138Z,69.12
2023-03-16T01:04:36.792Z,68.67
2023-03-16T01:07:04.504Z,69.19
2023-03-16T01:09:31.251Z,69.82
2023-03-16T01:11:57.739Z,69.22
2023-03-16T01:14:24.303Z,69.32
2023-03-16T01:16:51.921Z,68.54
2023-03-16T01:19:18.715Z,69.63
2023-03-16T01:21:45.243Z,68.96
2023-03-16T01:24:11.739Z,69.26
2023-03-16T01:26:38.296Z,69.21
2023-03-16T01:29:04.751Z,69.36
2023-03-16T01:31:31.915Z,69.55
2023-03-16T01:33:58.407Z,69.79
2023-03-16T01:36:25.037Z,70.39
2023-03-16T01:38:51.481Z,69.54
2023-03-16T01:41:17.962Z,69.86
2023-03-16T01:43:44.429Z,70.33
2023-03-16T01:46:18.344Z,69.46
2023-03-16T01:49:05.709Z,70.32
2023-03-16T01:51:44.405Z,69.66
2023-03-16T01:54:21.854Z,70.45
2023-03-16T01:56:57.173Z,69.39
2023-03-16T01:59:29.769Z,69.71
2023-03-16T02:01:56.642Z,69.10
2023-03-16T02:04:29.114Z,69.11
2023-03-16T02:06:57.732Z,69.45
2023-03-16T02:09:25.276Z,69.56
2023-03-16T02:11:53.658Z,69.59
2023-03-16T02:14:20.171Z,69.88
2023-03-16T02:16:47.661Z,69.07
2023-03-16T02:19:27.627Z,70.22
2023-03-16T02:22:03.320Z,70.77
2023-03-16T02:24:30.630Z,71.90
2023-03-16T02:27:07.503Z,73.91
2023-03-16T02:29:56.058Z,72.45
2023-03-16T02:32:23.570Z,72.08
2023-03-16T02:34:50.260Z,71.26
2023-03-16T02:37:16.782Z,71.55
2023-03-16T02:39:44.125Z,70.78
2023-03-16T02:42:16.098Z,70.52
2023-03-16T02:44:43.809Z,71.53
2023-03-16T02:47:16.880Z,70.65
2023-03-16T02:49:45.430Z,71.22
2023-03-16T02:52:12.476Z,71.30
2023-03-16T02:54:39.209Z,70.96
2023-03-16T02:57:05.737Z,71.64
2023-03-16T02:59:32.323Z,70.83
2023-03-16T03:01:58.850Z,72.93
2023-03-16T03:04:25.389Z,71.55
2023-03-16T03:06:52.093Z,74.57
2023-03-16T03:09:19.236Z,73.84
2023-03-16T03:11:46.782Z,72.62
2023-03-16T03:14:16.919Z,71.27
2023-03-16T03:16:46.661Z,71.83
2023-03-16T03:19:13.758Z,72.16
2023-03-16T03:21:40.746Z,71.75
2023-03-16T03:24:08.168Z,71.79
2023-03-16T03:26:34.639Z,72.57
2023-03-16T03:29:01.140Z,73.57
2023-03-16T03:31:27.622Z,73.68
2023-03-16T03:33:54.126Z,74.40
2023-03-16T03:36:22.224Z,74.01
2023-03-16T03:38:49.698Z,73.68
2023-03-16T03:41:16.279Z,73.66
2023-03-16T03:43:44.223Z,73.88
2023-03-16T03:46:10.887Z,74.78
2023-03-16T03:48:37.440Z,75.16
2023-03-16T03:51:05.537Z,74.61
2023-03-16T03:53:32.200Z,74.26
2023-03-16T03:55:58.643Z,74.55
2023-03-16T03:58:25.144Z,75.53
2023-03-16T04:00:52.130Z,75.72
2023-03-16T04:03:18.657Z,75.03
2023-03-16T04:05:45.115Z,74.04
2023-03-16T04:08:11.721Z,72.48
2023-03-16T04:10:38.327Z,73.13
2023-03-16T04:13:04.799Z,74.14
2023-03-16T04:15:32.986Z,74.76
2023-03-16T04:17:59.812Z,73.70
2023-03-16T04:20:26.456Z,73.32
2023-03-16T04:22:58.403Z,73.91
2023-03-16T04:25:30.614Z,74.61
2023-03-16T04:27:57.634Z,73.50
2023-03-16T04:30:24.151Z,73.34
2023-03-16T04:32:52.320Z,74.49
2023-03-16T04:35:19.523Z,73.78
2023-03-16T04:37:45.975Z,75.16
2023-03-16T04:40:15.890Z,74.98
2023-03-16T04:42:43.619Z,74.21
2023-03-16T04:45:10.437Z,74.43
2023-03-16T04:47:37.776Z,74.28
2023-03-16T04:50:06.029Z,74.53
2023-03-16T04:52:32.594Z,74.42
2023-03-16T04:54:59.069Z,73.68
2023-03-16T04:57:25.484Z,74.00
2023-03-16T04:59:52.013Z,73.88
2023-03-16T05:02:19.992Z,73.01
2023-03-16T05:04:46.725Z,73.81
2023-03-16T05:07:13.256Z,73.17
2023-03-16T05:09:39.826Z,72.92
2023-03-16T05:12:06.561Z,73.03
2023-03-16T05:14:33.026Z,72.69
2023-03-16T05:16:59.458Z,73.49
2023-03-16T05:19:25.921Z,73.65
2023-03-16T05:21:52.355Z,74.46
2023-03-16T05:24:18.777Z,73.55
2023-03-16T05:26:45.283Z,73.12
2023-03-16T05:29:11.743Z,74.67
2023-03-16T05:31:38.522Z,75.92
2023-03-16T05:34:05.076Z,76.84
2023-03-16T05:36:31.563Z,75.00
2023-03-16T05:38:59.401Z,75.36
2023-03-16T05:41:25.878Z,75.41
2023-03-16T05:43:52.390Z,74.08
2023-03-16T05:46:20.854Z,74.44
2023-03-16T05:48:47.489Z,74.88
2023-03-16T05:51:14.292Z,73.91
2023-03-16T05:53:40.855Z,72.83
2023-03-16T05:56:07.583Z,73.23
2023-03-16T05:58:34.140Z,73.76
2023-03-16T06:01:01.890Z,73.91
2023-03-16T06:03:28.719Z,74.30
2023-03-16T06:05:55.183Z,73.84
2023-03-16T06:08:21.621Z,73.38
2023-03-16T06:10:48.953Z,73.61
2023-03-16T06:13:15.395Z,74.28
2023-03-16T06:15:42.144Z,74.75
2023-03-16T06:18:08.815Z,74.66
2023-03-16T06:20:35.567Z,73.79
2023-03-16T06:23:02.015Z,74.60
2023-03-16T06:25:28.496Z,74.47
2023-03-16T06:27:55.396Z,74.67
2023-03-16T06:30:21.960Z,74.30
2023-03-16T06:32:48.903Z,73.78
2023-03-16T06:35:15.412Z,74.11
2023-03-16T06:37:41.965Z,73.50
2023-03-16T06:40:09.794Z,73.82
2023-03-16T06:42:36.311Z,72.63
2023-03-16T06:45:02.828Z,71.34
2023-03-16T06:47:29.312Z,71.94
2023-03-16T06:49:55.750Z,71.27
2023-03-16T06:52:22.535Z,71.38
2023-03-16T06:54:48.994Z,71.95
2023-03-16T06:57:15.521Z,70.74
2023-03-16T06:59:42.065Z,71.92
2023-03-16T07:02:12.055Z,71.73
2023-03-16T07:04:38.550Z,70.74
2023-03-16T07:07:05.210Z,70.58
2023-03-16T07:09:31.720Z,69.90
2023-03-16T07:11:58.272Z,70.01
2023-03-16T07:14:26.128Z,69.44
2023-03-16T07:16:53.127Z,70.47
2023-03-16T07:19:19.862Z,69.56
2023-03-16T07:21:46.364Z,68.94
2023-03-16T07:24:13.016Z,67.86
2023-03-16T07:26:39.568Z,68.63
2023-03-16T07:29:06.487Z,67.82
2023-03-16T07:31:34.576Z,67.82
2023-03-16T07:34:02.482Z,68.89
2023-03-16T07:36:28.983Z,68.82
2023-03-16T07:38:55.474Z,68.10
2023-03-16T07:41:21.916Z,68.04
2023-03-16T07:43:48.765Z,67.75
2023-03-16T07:46:15.304Z,68.08
2023-03-16T07:48:42.944Z,67.70
2023-03-16T07:51:10.478Z,67.03
2023-03-16T07:53:37.224Z,66.96
2023-03-16T07:56:04.041Z,66.62
2023-03-16T07:58:30.583Z,66.15
2023-03-16T08:01:00.256Z,66.14
2023-03-16T08:03:27.811Z,64.86
2023-03-16T08:05:55.076Z,64.25
2023-03-16T08:08:22.770Z,64.55
2023-03-16T08:10:52.434Z,63.50
2023-03-16T08:13:19.932Z,62.75
2023-03-16T08:15:48.031Z,62.63
2023-03-16T08:18:14.873Z,62.00
2023-03-16T08:20:42.075Z,61.54
2023-03-16T08:23:08.839Z,60.87
2023-03-16T08:25:35.327Z,60.20
2023-03-16T08:28:02.296Z,60.29
2023-03-16T08:30:31.074Z,59.53
2023-03-16T08:32:57.860Z,59.10
2023-03-16T08:35:24.766Z,58.75
2023-03-16T08:37:51.341Z,57.52
2023-03-16T08:40:18.266Z,57.86
2023-03-16T08:42:45.190Z,57.36
2023-03-16T08:45:14.405Z,56.61
2023-03-16T08:47:41.171Z,56.53
2023-03-16T08:50:09.350Z,55.75
2023-03-16T08:52:36.663Z,56.06
2023-03-16T08:55:05.711Z,54.23
2023-03-16T08:57:33.464Z,54.37
2023-03-16T09:00:00.549Z,54.43
2023-03-16T09:02:27.248Z,54.79
2023-03-16T09:04:53.840Z,53.95
2023-03-16T09:07:20.755Z,53.76
2023-03-16T09:09:47.247Z,52.63
2023-03-16T09:12:13.771Z,52.04
2023-03-16T09:14:40.269Z,51.04
2023-03-16T09:17:11.768Z,50.49
2023-03-16T09:19:57.731Z,49.77
2023-03-16T09:22:25.617Z,49.29
2023-03-16T09:24:52.142Z,49.78
2023-03-16T09:27:19.020Z,48.15
2023-03-16T09:29:45.616Z,49.74
2023-03-16T09:32:13.024Z,48.56
2023-03-16T09:34:39.711Z,49.24
2023-03-16T09:37:06.386Z,48.37
2023-03-16T09:39:33.440Z,47.94
2023-03-16T09:42:04.979Z,47.61
2023-03-16T09:44:37.440Z,48.29
2023-03-16T09:47:04.967Z,47.60
2023-03-16T09:49:36.858Z,47.20
2023-03-16T09:52:20.808Z,47.21
2023-03-16T09:55:00.850Z,46.28
2023-03-16T09:57:36.742Z,47.23
2023-03-16T10:00:23.059Z,47.67
2023-03-16T10:03:16.214Z,47.53
2023-03-16T10:05:42.650Z,46.50
2023-03-16T10:08:22.384Z,45.70
2023-03-16T10:11:06.952Z,45.68
2023-03-16T10:13:55.315Z,46.17
2023-03-16T10:16:33.109Z,45.48
2023-03-16T10:19:19.723Z,45.13
2023-03-16T10:21:46.999Z,45.73
2023-03-16T10:24:27.158Z,46.06
2023-03-16T10:27:00.160Z,45.39
2023-03-16T10:29:29.314Z,44.71
2023-03-16T10:32:02.642Z,43.89
2023-03-16T10:34:30.659Z,44.02
2023-03-16T10:36:57.950Z,42.74
2023-03-16T10:39:24.491Z,42.42
2023-03-16T10:41:57.920Z,42.31
2023-03-16T10:44:28.632Z,42.63
2023-03-16T10:47:08.487Z,41.64
2023-03-16T10:49:41.973Z,42.09
2023-03-16T10:52:27.931Z,41.14
2023-03-16T10:55:07.994Z,40.19
2023-03-16T10:57:36.413Z,40.18
2023-03-16T11:00:13.872Z,39.62
2023-03-16T11:02:40.905Z,40.13
2023-03-16T11:05:19.630Z,38.05
2023-03-16T11:08:01.305Z,39.23
2023-03-16T11:10:46.122Z,39.05
2023-03-16T11:13:20.424Z,39.27
2023-03-16T11:16:01.673Z,38.68
2023-03-16T11:18:36.005Z,39.08
2023-03-16T11:21:08.549Z,38.79
2023-03-16T11:23:37.597Z,38.63
2023-03-16T11:26:08.250Z,38.82
2023-03-16T11:28:41.844Z,38.54
2023-03-16T11:31:32.928Z,37.59
2023-03-16T11:33:59.600Z,37.95
2023-03-16T11:36:40.729Z,38.28
2023-03-16T11:39:43.714Z,39.10
2023-03-16T11:42:27.595Z,39.84
2023-03-16T11:45:27.422Z,38.94
2023-03-16T11:48:04.828Z,39.00
2023-03-16T11:50:43.621Z,39.81
2023-03-16T11:53:21.187Z,39.43
2023-03-16T11:55:59.893Z,39.80
2023-03-16T11:58:35.576Z,39.00
2023-03-16T12:01:13.233Z,40.16
2023-03-16T12:03:45.793Z,39.31
2023-03-16T12:06:28.196Z,39.35
2023-03-16T12:09:23.054Z,39.39
2023-03-16T12:12:04.856Z,39.73
2023-03-16T12:14:44.237Z,39.86
2023-03-16T12:17:16.815Z,38.40
2023-03-16T12:19:44.950Z,38.40
2023-03-16T12:22:28.926Z,39.26
2023-03-16T12:24:55.521Z,39.24
2023-03-16T12:27:25.971Z,38.93
2023-03-16T12:30:11.737Z,39.20
2023-03-16T12:33:00.773Z,39.94
2023-03-16T12:35:59.724Z,39.22
2023-03-16T12:38:48.157Z,37.28
2023-03-16T12:41:23.926Z,37.18
2023-03-16T12:44:15.930Z,37.78
2023-03-16T12:46:49.383Z,38.11
2023-03-16T12:49:16.348Z,38.62
2023-03-16T12:51:43.825Z,38.42
2023-03-16T12:54:22.682Z,38.48
2023-03-16T12:56:51.661Z,38.71
2023-03-16T12:59:21.055Z,37.08
2023-03-16T13:02:01.563Z,36.23
2023-03-16T13:04:33.956Z,35.21
2023-03-16T13:07:05.075Z,36.64
2023-03-16T13:09:32.602Z,35.33
2023-03-16T13:12:04.942Z,33.92
2023-03-16T13:14:40.572Z,34.63
2023-03-16T13:17:16.844Z,34.02
2023-03-16T13:20:30.429Z,33.66
2023-03-16T13:23:17.096Z,34.17
2023-03-16T13:25:45.772Z,33.24
2023-03-16T13:28:17.056Z,33.10
2023-03-16T13:30:48.695Z,33.77
2023-03-16T13:33:25.678Z,33.53
2023-03-16T13:35:53.391Z,34.69
2023-03-16T13:38:22.771Z,35.36
2023-03-16T13:40:51.567Z,33.97
2023-03-16T13:43:22.077Z,33.96
2023-03-16T13:45:48.680Z,34.34
2023-03-16T13:48:16.339Z,34.65
2023-03-16T13:50:52.004Z,34.92
2023-03-16T13:53:31.484Z,33.78
2023-03-16T13:56:00.139Z,33.63
2023-03-16T13:58:32.133Z,33.17
2023-03-16T14:01:01.739Z,32.73
2023-03-16T14:03:36.048Z,32.47
2023-03-16T14:06:04.651Z,32.90
2023-03-16T14:08:32.506Z,32.28
2023-03-16T14:11:01.188Z,32.59
2023-03-16T14:13:27.943Z,32.95
2023-03-16T14:15:56.761Z,33.33
2023-03-16T14:18:30.356Z,33.13
2023-03-16T14:20:56.949Z,32.73
2023-03-16T14:23:25.815Z,33.21
2023-03-16T14:25:53.614Z,33.05
2023-03-16T14:28:27.426Z,33.90
2023-03-16T14:31:02.258Z,32.89
2023-03-16T14:33:33.721Z,33.46
2023-03-16T14:36:10.007Z,33.29
2023-03-16T14:38:37.401Z,33.51
2023-03-16T14:41:17.691Z,33.40
2023-03-16T14:43:59.493Z,32.76
2023-03-16T14:46:34.642Z,33.00
2023-03-16T14:49:20.293Z,32.69
2023-03-16T14:51:48.512Z,32.51
2023-03-16T14:54:17.182Z,32.86
2023-03-16T14:56:51.708Z,32.49
2023-03-16T14:59:18.579Z,32.97
2023-03-16T15:01:46.083Z,33.08
2023-03-16T15:04:14.912Z,32.72
2023-03-16T15:06:41.984Z,32.42
2023-03-16T15:09:27.913Z,32.98
2023-03-16T15:11:55.632Z,32.80
2023-03-16T15:14:40.698Z,33.00
2023-03-16T15:17:08.190Z,32.97
2023-03-16T15:19:34.848Z,32.84
2023-03-16T15:22:02.316Z,33.28
2023-03-16T15:24:30.755Z,33.05
2023-03-16T15:26:57.274Z,33.70
2023-03-16T15:29:23.838Z,33.36
2023-03-16T15:31:52.735Z,32.97
2023-03-16T15:34:22.749Z,33.12
2023-03-16T15:36:49.541Z,33.35
2023-03-16T15:39:24.236Z,34.56
2023-03-16T15:41:50.979Z,33.57
2023-03-16T15:44:17.500Z,32.89
2023-03-16T15:46:44.517Z,33.27
2023-03-16T15:49:11.292Z,33.13
2023-03-16T15:51:37.932Z,33.89
2023-03-16T15:54:06.960Z,34.05
2023-03-16T15:56:47.321Z,33.96
2023-03-16T15:59:20.658Z,33.57
2023-03-16T16:01:47.927Z,33.78
2023-03-16T16:04:20.174Z,33.92
2023-03-16T16:06:47.708Z,34.67
2023-03-16T16:09:14.243Z,34.16
2023-03-16T16:11:41.436Z,33.83
2023-03-16T16:14:26.660Z,34.14
2023-03-16T16:16:54.342Z,33.93
2023-03-16T16:19:21.557Z,35.05
2023-03-16T16:21:48.881Z,35.13
2023-03-16T16:24:17.610Z,34.97
2023-03-16T16:26:52.894Z,34.26
2023-03-16T16:29:27.551Z,34.31
2023-03-16T16:31:55.238Z,35.57
2023-03-16T16:34:27.043Z,35.19
2023-03-16T16:36:54.718Z,35.34
2023-03-16T16:39:22.162Z,35.91
2023-03-16T16:41:50.873Z,35.78
2023-03-16T16:44:20.595Z,35.29
2023-03-16T16:46:49.173Z,36.36
2023-03-16T16:49:22.605Z,36.13
2023-03-16T16:51:49.687Z,36.32
2023-03-16T16:54:21.967Z,36.35
2023-03-16T16:56:50.656Z,36.47
2023-03-16T16:59:19.832Z,36.51
2023-03-16T17:01:47.754Z,37.00
2023-03-16T17:04:17.676Z,37.16
2023-03-16T17:06:45.560Z,37.24
2023-03-16T17:09:14.381Z,37.65
2023-03-16T17:11:42.283Z,38.02
2023-03-16T17:14:09.132Z,37.76
2023-03-16T17:16:39.571Z,38.56
2023-03-16T17:19:07.459Z,37.88
2023-03-16T17:21:34.586Z,37.67
2023-03-16T17:24:01.060Z,38.91
2023-03-16T17:26:30.832Z,38.80
2023-03-16T17:29:03.284Z,39.15
2023-03-16T17:31:35.168Z,39.36
2023-03-16T17:34:03.432Z,39.36
2023-03-16T17:36:29.895Z,39.94
2023-03-16T17:38:56.519Z,40.09
2023-03-16T17:41:26.223Z,40.09
2023-03-16T17:43:55.217Z,39.96
2023-03-16T17:46:24.496Z,39.86
2023-03-16T17:48:55.629Z,40.31
2023-03-16T17:51:23.776Z,40.32
2023-03-16T17:53:50.355Z,39.89
2023-03-16T17:56:20.555Z,40.05
2023-03-16T17:58:49.206Z,40.26
2023-03-16T18:01:16.639Z,40.14
2023-03-16T18:03:45.949Z,40.50
2023-03-16T18:06:19.469Z,40.15
2023-03-16T18:08:48.637Z,39.65
2023-03-16T18:11:27.879Z,40.36
2023-03-16T18:13:58.136Z,39.53
2023-03-16T18:16:28.169Z,40.27
2023-03-16T18:19:00.181Z,40.14
2023-03-16T18:21:28.328Z,39.41
2023-03-16T18:23:54.943Z,40.68
2023-03-16T18:26:21.950Z,40.39
2023-03-16T18:28:51.679Z,40.59
2023-03-16T18:31:28.223Z,40.90
2023-03-16T18:34:03.510Z,41.26
2023-03-16T18:36:33.799Z,41.15
2023-03-16T18:39:08.178Z,41.49
2023-03-16T18:41:36.827Z,41.38
2023-03-16T18:44:18.828Z,42.06
2023-03-16T18:46:46.567Z,41.74
2023-03-16T18:49:15.158Z,41.53
2023-03-16T18:51:43.772Z,42.45
2023-03-16T18:54:22.855Z,42.53
2023-03-16T18:56:50.199Z,42.12
2023-03-16T18:59:18.584Z,43.17
2023-03-16T19:01:46.527Z,42.10
2023-03-16T19:04:36.276Z,43.05
2023-03-16T19:07:06.507Z,42.74
2023-03-16T19:09:38.435Z,42.53
2023-03-16T19:12:06.071Z,42.69
2023-03-16T19:14:37.067Z,42.36
2023-03-16T19:17:14.505Z,43.42
2023-03-16T19:19:43.693Z,43.15
2023-03-16T19:22:21.049Z,44.19
2023-03-16T19:24:50.156Z,43.88
2023-03-16T19:27:23.219Z,44.32
2023-03-16T19:29:52.284Z,44.95
2023-03-16T19:32:21.476Z,45.11
2023-03-16T19:34:48.912Z,45.14
2023-03-16T19:37:16.823Z,45.39
2023-03-16T19:39:43.916Z,44.58
2023-03-16T19:42:21.365Z,44.70
2023-03-16T19:44:49.557Z,45.50
2023-03-16T19:47:31.172Z,45.82
2023-03-16T19:49:59.009Z,45.70
2023-03-16T19:52:26.640Z,46.08
2023-03-16T19:54:53.647Z,45.70
2023-03-16T19:57:20.975Z,46.31
2023-03-16T19:59:53.581Z,45.84
2023-03-16T20:02:23.207Z,46.13
2023-03-16T20:04:49.755Z,46.00
2023-03-16T20:07:17.129Z,46.47
2023-03-16T20:09:43.927Z,45.68
2023-03-16T20:12:22.643Z,47.25
2023-03-16T20:14:49.957Z,46.55
2023-03-16T20:17:23.183Z,46.90
2023-03-16T20:19:50.693Z,46.63
2023-03-16T20:22:19.778Z,46.63
2023-03-16T20:24:48.508Z,46.98
2023-03-16T20:27:15.936Z,47.38
2023-03-16T20:29:42.895Z,47.17
2023-03-16T20:32:31.501Z,46.93
2023-03-16T20:34:58.236Z,47.01
2023-03-16T20:37:29.967Z,47.07
2023-03-16T20:39:59.001Z,47.08
2023-03-16T20:42:29.369Z,47.03
2023-03-16T20:44:56.347Z,47.21
2023-03-16T20:47:24.380Z,46.65
2023-03-16T20:49:51.862Z,46.17
2023-03-16T20:52:21.737Z,47.03
2023-03-16T20:54:49.475Z,47.31
2023-03-16T20:57:24.718Z,47.41
2023-03-16T20:59:53.820Z,47.10
2023-03-16T21:02:35.087Z,47.23
2023-03-16T21:05:04.066Z,46.51
2023-03-16T21:07:31.943Z,47.58
2023-03-16T21:09:58.703Z,47.01
2023-03-16T21:12:30.751Z,47.01
2023-03-16T21:14:57.820Z,47.11
2023-03-16T21:17:31.349Z,46.06
2023-03-16T21:19:58.967Z,46.43
2023-03-16T21:22:35.587Z,47.20
2023-03-16T21:25:02.056Z,47.20
2023-03-16T21:27:31.238Z,45.93
2023-03-16T21:29:59.576Z,46.66
2023-03-16T21:32:27.773Z,47.08
2023-03-16T21:34:55.261Z,46.22
2023-03-16T21:37:25.876Z,47.31
2023-03-16T21:39:52.653Z,46.99
2023-03-16T21:42:19.775Z,46.69
2023-03-16T21:44:46.528Z,46.07
2023-03-16T21:47:28.535Z,46.76
2023-03-16T21:49:55.669Z,47.31
2023-03-16T21:52:28.107Z,46.83
2023-03-16T21:54:55.798Z,46.63
2023-03-16T21:57:22.991Z,46.76
2023-03-16T21:59:50.441Z,46.67
2023-03-16T22:02:22.600Z,46.32
2023-03-16T22:04:50.115Z,47.23
2023-03-16T22:07:16.696Z,47.44
2023-03-16T22:09:43.565Z,47.70
2023-03-16T22:12:11.593Z,46.81
2023-03-16T22:14:39.196Z,46.97
2023-03-16T22:17:06.384Z,46.90
2023-03-16T22:19:33.700Z,47.64
2023-03-16T22:22:00.386Z,46.94
2023-03-16T22:24:28.741Z,47.31
2023-03-16T22:26:55.407Z,47.98
2023-03-16T22:29:23.542Z,47.16
2023-03-16T22:31:58.701Z,47.41
2023-03-16T22:34:50.991Z,47.25
2023-03-16T22:37:21.367Z,47.11
2023-03-16T22:39:48.370Z,47.74
2023-03-16T22:42:28.218Z,47.59
2023-03-16T22:44:55.983Z,46.56
2023-03-16T22:47:27.855Z,47.61
2023-03-16T22:49:54.432Z,47.81
2023-03-16T22:52:23.178Z,47.92
2023-03-16T22:54:49.630Z,48.98
2023-03-16T22:57:16.802Z,48.07
2023-03-16T22:59:44.199Z,48.21
2023-03-16T23:02:15.551Z,47.92
2023-03-16T23:04:42.323Z,48.26
2023-03-16T23:07:13.133Z,47.78
2023-03-16T23:09:40.506Z,48.45
2023-03-16T23:12:20.918Z,47.78
2023-03-16T23:14:48.366Z,48.08
2023-03-16T23:17:20.636Z,48.41
2023-03-16T23:19:48.501Z,47.91
2023-03-16T23:22:16.004Z,48.30
2023-03-16T23:24:43.153Z,48.47
2023-03-16T23:27:28.669Z,48.65
2023-03-16T23:29:55.280Z,47.89
2023-03-16T23:32:21.900Z,48.99
2023-03-16T23:34:48.365Z,48.81
2023-03-16T23:37:14.824Z,48.82
2023-03-16T23:39:41.300Z,48.94
2023-03-16T23:42:08.880Z,49.07
2023-03-16T23:44:36.001Z,49.26
2023-03-16T23:47:02.498Z,48.86
2023-03-16T23:49:32.639Z,50.15
2023-03-16T23:52:00.696Z,48.88
2023-03-16T23:54:29.862Z,49.45
2023-03-16T23:56:57.208Z,48.87
2023-03-16T23:59:24.288Z,49.69
